sensor_id;sensor_type;location;lat;lon;timestamp;temperature;humidity
18593;DHT22;9426;54.118;17.948;2022-10-16T00:04:10;12.60;99.90
18593;DHT22;9426;54.118;17.948;2022-10-16T00:09:34;12.70;99.90
18593;DHT22;9426;54.118;17.948;2022-10-16T00:14:58;12.70;99.90
18593;DHT22;9426;54.118;17.948;2022-10-16T00:20:21;12.70;99.90
18593;DHT22;9426;54.118;17.948;2022-10-16T00:25:54;12.80;99.90
18593;DHT22;9426;54.118;17.948;2022-10-16T00:31:19;12.90;99.90
18593;DHT22;9426;54.118;17.948;2022-10-16T00:36:43;13.00;99.90
18593;DHT22;9426;54.118;17.948;2022-10-16T00:42:11;13.00;99.90
18593;DHT22;9426;54.118;17.948;2022-10-16T00:47:39;13.00;99.90
18593;DHT22;9426;54.118;17.948;2022-10-16T00:53:03;13.00;99.90
18593;DHT22;9426;54.118;17.948;2022-10-16T00:58:28;13.10;99.90
18593;DHT22;9426;54.118;17.948;2022-10-16T01:03:51;13.10;99.90
18593;DHT22;9426;54.118;17.948;2022-10-16T01:09:17;13.10;99.90
18593;DHT22;9426;54.118;17.948;2022-10-16T01:14:51;13.10;99.90
18593;DHT22;9426;54.118;17.948;2022-10-16T01:20:23;13.10;99.90
18593;DHT22;9426;54.118;17.948;2022-10-16T01:26:04;13.00;99.90
18593;DHT22;9426;54.118;17.948;2022-10-16T01:31:35;13.00;99.90
18593;DHT22;9426;54.118;17.948;2022-10-16T01:37:04;13.00;99.90
18593;DHT22;9426;54.118;17.948;2022-10-16T01:42:31;12.90;99.90
18593;DHT22;9426;54.118;17.948;2022-10-16T01:48:00;12.80;99.90
18593;DHT22;9426;54.118;17.948;2022-10-16T01:53:26;12.70;99.90
18593;DHT22;9426;54.118;17.948;2022-10-16T01:58:54;12.70;99.90
18593;DHT22;9426;54.118;17.948;2022-10-16T02:04:23;12.70;99.90
18593;DHT22;9426;54.118;17.948;2022-10-16T02:09:47;12.60;99.90
18593;DHT22;9426;54.118;17.948;2022-10-16T02:15:11;12.70;99.90
18593;DHT22;9426;54.118;17.948;2022-10-16T02:20:40;12.80;99.90
18593;DHT22;9426;54.118;17.948;2022-10-16T02:26:07;12.80;99.90
18593;DHT22;9426;54.118;17.948;2022-10-16T02:31:35;12.90;99.90
18593;DHT22;9426;54.118;17.948;2022-10-16T02:37:04;12.90;99.90
18593;DHT22;9426;54.118;17.948;2022-10-16T02:42:29;13.00;99.90
18593;DHT22;9426;54.118;17.948;2022-10-16T02:47:52;13.10;99.90
18593;DHT22;9426;54.118;17.948;2022-10-16T02:53:17;13.10;99.90
18593;DHT22;9426;54.118;17.948;2022-10-16T02:58:40;13.10;99.90
18593;DHT22;9426;54.118;17.948;2022-10-16T03:04:04;13.10;99.90
18593;DHT22;9426;54.118;17.948;2022-10-16T03:09:29;13.10;99.90
18593;DHT22;9426;54.118;17.948;2022-10-16T03:14:52;13.10;99.90
18593;DHT22;9426;54.118;17.948;2022-10-16T03:20:16;13.10;99.90
18593;DHT22;9426;54.118;17.948;2022-10-16T03:25:41;13.20;99.90
18593;DHT22;9426;54.118;17.948;2022-10-16T03:31:04;13.20;99.90
18593;DHT22;9426;54.118;17.948;2022-10-16T03:36:28;13.20;99.90
18593;DHT22;9426;54.118;17.948;2022-10-16T03:41:52;13.20;99.90
18593;DHT22;9426;54.118;17.948;2022-10-16T03:47:16;13.20;99.90
18593;DHT22;9426;54.118;17.948;2022-10-16T03:52:43;13.30;99.90
18593;DHT22;9426;54.118;17.948;2022-10-16T03:58:07;13.30;99.90
18593;DHT22;9426;54.118;17.948;2022-10-16T04:03:30;13.30;99.90
18593;DHT22;9426;54.118;17.948;2022-10-16T04:08:54;13.30;99.90
18593;DHT22;9426;54.118;17.948;2022-10-16T04:14:19;13.30;99.90
18593;DHT22;9426;54.118;17.948;2022-10-16T04:19:42;13.30;99.90
18593;DHT22;9426;54.118;17.948;2022-10-16T04:25:06;13.20;99.90
18593;DHT22;9426;54.118;17.948;2022-10-16T04:30:31;13.20;99.90
18593;DHT22;9426;54.118;17.948;2022-10-16T04:35:58;13.20;99.90
18593;DHT22;9426;54.118;17.948;2022-10-16T04:41:22;13.10;99.90
18593;DHT22;9426;54.118;17.948;2022-10-16T04:46:47;13.10;99.90
18593;DHT22;9426;54.118;17.948;2022-10-16T04:52:10;13.10;99.90
18593;DHT22;9426;54.118;17.948;2022-10-16T04:57:33;13.10;99.90
18593;DHT22;9426;54.118;17.948;2022-10-16T05:02:58;13.00;99.90
18593;DHT22;9426;54.118;17.948;2022-10-16T05:08:22;13.00;99.90
18593;DHT22;9426;54.118;17.948;2022-10-16T05:13:45;13.00;99.90
18593;DHT22;9426;54.118;17.948;2022-10-16T05:19:10;13.00;99.90
18593;DHT22;9426;54.118;17.948;2022-10-16T05:24:49;13.00;99.90
18593;DHT22;9426;54.118;17.948;2022-10-16T05:30:12;13.00;99.90
18593;DHT22;9426;54.118;17.948;2022-10-16T05:35:37;12.90;99.90
18593;DHT22;9426;54.118;17.948;2022-10-16T05:41:01;12.90;99.90
18593;DHT22;9426;54.118;17.948;2022-10-16T05:46:24;12.90;99.90
18593;DHT22;9426;54.118;17.948;2022-10-16T05:51:49;12.80;99.90
18593;DHT22;9426;54.118;17.948;2022-10-16T05:57:12;12.80;99.90
18593;DHT22;9426;54.118;17.948;2022-10-16T06:02:35;12.80;99.90
18593;DHT22;9426;54.118;17.948;2022-10-16T06:08:00;12.80;99.90
18593;DHT22;9426;54.118;17.948;2022-10-16T06:13:24;12.80;99.90
18593;DHT22;9426;54.118;17.948;2022-10-16T06:18:47;12.80;99.90
18593;DHT22;9426;54.118;17.948;2022-10-16T06:24:12;12.80;99.90
18593;DHT22;9426;54.118;17.948;2022-10-16T06:29:36;12.80;99.90
18593;DHT22;9426;54.118;17.948;2022-10-16T06:34:59;12.90;99.90
18593;DHT22;9426;54.118;17.948;2022-10-16T06:40:24;12.90;99.90
18593;DHT22;9426;54.118;17.948;2022-10-16T06:45:51;13.00;99.90
18593;DHT22;9426;54.118;17.948;2022-10-16T06:51:16;13.00;99.90
18593;DHT22;9426;54.118;17.948;2022-10-16T06:56:41;13.10;99.90
18593;DHT22;9426;54.118;17.948;2022-10-16T07:02:04;13.10;99.90
18593;DHT22;9426;54.118;17.948;2022-10-16T07:07:28;13.20;99.90
18593;DHT22;9426;54.118;17.948;2022-10-16T07:12:53;13.20;99.90
18593;DHT22;9426;54.118;17.948;2022-10-16T07:18:16;13.20;99.90
18593;DHT22;9426;54.118;17.948;2022-10-16T07:23:44;13.20;99.90
18593;DHT22;9426;54.118;17.948;2022-10-16T07:29:13;13.30;99.90
18593;DHT22;9426;54.118;17.948;2022-10-16T07:34:37;13.30;99.90
18593;DHT22;9426;54.118;17.948;2022-10-16T07:40:00;13.30;99.90
18593;DHT22;9426;54.118;17.948;2022-10-16T07:45:26;13.40;99.90
18593;DHT22;9426;54.118;17.948;2022-10-16T07:50:51;13.40;99.90
18593;DHT22;9426;54.118;17.948;2022-10-16T07:56:15;13.40;99.90
18593;DHT22;9426;54.118;17.948;2022-10-16T08:01:40;13.40;99.90
18593;DHT22;9426;54.118;17.948;2022-10-16T08:07:07;13.40;99.90
18593;DHT22;9426;54.118;17.948;2022-10-16T08:12:31;13.50;99.90
18593;DHT22;9426;54.118;17.948;2022-10-16T08:17:57;13.60;99.90
18593;DHT22;9426;54.118;17.948;2022-10-16T08:23:21;13.60;99.90
18593;DHT22;9426;54.118;17.948;2022-10-16T08:28:44;13.70;99.90
18593;DHT22;9426;54.118;17.948;2022-10-16T08:34:09;13.80;99.90
18593;DHT22;9426;54.118;17.948;2022-10-16T08:39:32;13.80;99.90
18593;DHT22;9426;54.118;17.948;2022-10-16T08:45:12;13.80;99.90
18593;DHT22;9426;54.118;17.948;2022-10-16T08:50:40;13.90;99.90
18593;DHT22;9426;54.118;17.948;2022-10-16T08:56:04;13.90;99.90
18593;DHT22;9426;54.118;17.948;2022-10-16T09:01:37;13.80;99.90
18593;DHT22;9426;54.118;17.948;2022-10-16T09:07:10;13.80;99.90
18593;DHT22;9426;54.118;17.948;2022-10-16T09:12:52;13.90;99.90
18593;DHT22;9426;54.118;17.948;2022-10-16T09:18:20;14.00;99.90
18593;DHT22;9426;54.118;17.948;2022-10-16T09:23:49;14.00;99.90
18593;DHT22;9426;54.118;17.948;2022-10-16T09:29:14;14.00;99.90
18593;DHT22;9426;54.118;17.948;2022-10-16T09:34:42;14.20;99.90
18593;DHT22;9426;54.118;17.948;2022-10-16T09:40:13;14.20;99.90
18593;DHT22;9426;54.118;17.948;2022-10-16T09:45:36;14.40;99.90
18593;DHT22;9426;54.118;17.948;2022-10-16T09:51:01;14.50;99.90
18593;DHT22;9426;54.118;17.948;2022-10-16T09:56:28;14.40;99.90
18593;DHT22;9426;54.118;17.948;2022-10-16T10:01:53;14.40;99.90
18593;DHT22;9426;54.118;17.948;2022-10-16T10:07:24;14.50;99.90
18593;DHT22;9426;54.118;17.948;2022-10-16T10:12:51;14.70;99.90
18593;DHT22;9426;54.118;17.948;2022-10-16T10:18:18;14.80;99.90
18593;DHT22;9426;54.118;17.948;2022-10-16T10:23:44;15.10;99.90
18593;DHT22;9426;54.118;17.948;2022-10-16T10:29:29;15.80;99.90
18593;DHT22;9426;54.118;17.948;2022-10-16T10:35:07;16.00;99.90
18593;DHT22;9426;54.118;17.948;2022-10-16T10:40:45;16.00;99.90
18593;DHT22;9426;54.118;17.948;2022-10-16T10:46:16;16.20;99.90
18593;DHT22;9426;54.118;17.948;2022-10-16T10:51:44;16.00;99.90
18593;DHT22;9426;54.118;17.948;2022-10-16T10:57:19;16.10;99.90
18593;DHT22;9426;54.118;17.948;2022-10-16T11:02:48;16.30;99.90
18593;DHT22;9426;54.118;17.948;2022-10-16T11:08:19;16.60;99.90
18593;DHT22;9426;54.118;17.948;2022-10-16T11:13:48;17.20;99.90
18593;DHT22;9426;54.118;17.948;2022-10-16T11:19:22;17.00;99.90
18593;DHT22;9426;54.118;17.948;2022-10-16T11:24:53;16.40;99.90
18593;DHT22;9426;54.118;17.948;2022-10-16T11:30:25;16.50;99.90
18593;DHT22;9426;54.118;17.948;2022-10-16T11:35:54;16.50;99.90
18593;DHT22;9426;54.118;17.948;2022-10-16T11:41:24;16.50;99.90
18593;DHT22;9426;54.118;17.948;2022-10-16T11:46:53;16.80;99.90
18593;DHT22;9426;54.118;17.948;2022-10-16T11:52:38;17.60;99.90
18593;DHT22;9426;54.118;17.948;2022-10-16T11:58:06;18.40;99.90
18593;DHT22;9426;54.118;17.948;2022-10-16T12:03:35;18.10;99.90
18593;DHT22;9426;54.118;17.948;2022-10-16T12:09:03;17.90;99.90
18593;DHT22;9426;54.118;17.948;2022-10-16T12:14:38;18.00;99.90
18593;DHT22;9426;54.118;17.948;2022-10-16T12:20:27;17.70;99.90
18593;DHT22;9426;54.118;17.948;2022-10-16T12:25:56;17.20;99.90
18593;DHT22;9426;54.118;17.948;2022-10-16T12:31:20;17.00;99.90
18593;DHT22;9426;54.118;17.948;2022-10-16T12:36:45;17.10;99.90
18593;DHT22;9426;54.118;17.948;2022-10-16T12:42:31;17.10;99.90
18593;DHT22;9426;54.118;17.948;2022-10-16T12:47:56;17.10;99.90
18593;DHT22;9426;54.118;17.948;2022-10-16T12:53:23;17.00;99.90
18593;DHT22;9426;54.118;17.948;2022-10-16T12:59:01;17.40;99.90
18593;DHT22;9426;54.118;17.948;2022-10-16T13:04:50;17.40;99.90
18593;DHT22;9426;54.118;17.948;2022-10-16T13:10:25;17.70;99.90
18593;DHT22;9426;54.118;17.948;2022-10-16T13:16:06;17.40;99.90
18593;DHT22;9426;54.118;17.948;2022-10-16T13:21:42;17.60;99.90
18593;DHT22;9426;54.118;17.948;2022-10-16T13:27:14;17.80;99.90
18593;DHT22;9426;54.118;17.948;2022-10-16T13:32:45;17.90;99.90
18593;DHT22;9426;54.118;17.948;2022-10-16T13:38:13;17.60;99.90
18593;DHT22;9426;54.118;17.948;2022-10-16T13:43:39;17.00;99.90
18593;DHT22;9426;54.118;17.948;2022-10-16T13:49:05;16.70;99.90
18593;DHT22;9426;54.118;17.948;2022-10-16T13:54:29;16.70;99.90
18593;DHT22;9426;54.118;17.948;2022-10-16T13:59:53;16.90;99.90
18593;DHT22;9426;54.118;17.948;2022-10-16T14:05:18;16.90;99.90
18593;DHT22;9426;54.118;17.948;2022-10-16T14:10:41;16.90;99.90
18593;DHT22;9426;54.118;17.948;2022-10-16T14:16:07;16.70;99.90
18593;DHT22;9426;54.118;17.948;2022-10-16T14:21:41;16.60;99.90
18593;DHT22;9426;54.118;17.948;2022-10-16T14:27:26;16.60;99.90
18593;DHT22;9426;54.118;17.948;2022-10-16T14:32:55;16.80;99.90
18593;DHT22;9426;54.118;17.948;2022-10-16T14:38:20;16.70;99.90
18593;DHT22;9426;54.118;17.948;2022-10-16T14:43:44;16.50;99.90
18593;DHT22;9426;54.118;17.948;2022-10-16T14:49:16;16.30;99.90
18593;DHT22;9426;54.118;17.948;2022-10-16T14:54:42;16.30;99.90
18593;DHT22;9426;54.118;17.948;2022-10-16T15:00:13;16.20;99.90
18593;DHT22;9426;54.118;17.948;2022-10-16T15:05:38;16.00;99.90
18593;DHT22;9426;54.118;17.948;2022-10-16T15:11:05;16.00;99.90
18593;DHT22;9426;54.118;17.948;2022-10-16T15:16:29;15.90;99.90
18593;DHT22;9426;54.118;17.948;2022-10-16T15:21:53;15.60;99.90
18593;DHT22;9426;54.118;17.948;2022-10-16T15:27:18;15.30;99.90
18593;DHT22;9426;54.118;17.948;2022-10-16T15:32:42;14.90;99.90
18593;DHT22;9426;54.118;17.948;2022-10-16T15:38:05;14.70;99.90
18593;DHT22;9426;54.118;17.948;2022-10-16T15:43:30;14.50;99.90
18593;DHT22;9426;54.118;17.948;2022-10-16T15:48:57;14.20;99.90
18593;DHT22;9426;54.118;17.948;2022-10-16T15:54:21;13.80;99.90
18593;DHT22;9426;54.118;17.948;2022-10-16T15:59:45;13.60;99.90
18593;DHT22;9426;54.118;17.948;2022-10-16T16:05:09;13.30;99.90
18593;DHT22;9426;54.118;17.948;2022-10-16T16:10:33;13.10;99.90
18593;DHT22;9426;54.118;17.948;2022-10-16T16:15:57;13.10;99.90
18593;DHT22;9426;54.118;17.948;2022-10-16T16:21:21;13.00;99.90
18593;DHT22;9426;54.118;17.948;2022-10-16T16:26:45;12.80;99.90
18593;DHT22;9426;54.118;17.948;2022-10-16T16:32:10;12.60;99.90
18593;DHT22;9426;54.118;17.948;2022-10-16T16:37:34;12.60;99.90
18593;DHT22;9426;54.118;17.948;2022-10-16T16:42:57;12.60;99.90
18593;DHT22;9426;54.118;17.948;2022-10-16T16:48:22;13.00;99.90
18593;DHT22;9426;54.118;17.948;2022-10-16T16:53:47;13.00;99.90
18593;DHT22;9426;54.118;17.948;2022-10-16T16:59:13;13.00;99.90
18593;DHT22;9426;54.118;17.948;2022-10-16T17:04:39;12.90;99.90
18593;DHT22;9426;54.118;17.948;2022-10-16T17:10:03;12.90;99.90
18593;DHT22;9426;54.118;17.948;2022-10-16T17:15:27;12.90;99.90
18593;DHT22;9426;54.118;17.948;2022-10-16T17:20:51;12.70;99.90
18593;DHT22;9426;54.118;17.948;2022-10-16T17:26:16;12.40;99.90
18593;DHT22;9426;54.118;17.948;2022-10-16T17:31:40;12.30;99.90
18593;DHT22;9426;54.118;17.948;2022-10-16T17:37:05;12.00;99.90
18593;DHT22;9426;54.118;17.948;2022-10-16T17:42:28;11.90;99.90
18593;DHT22;9426;54.118;17.948;2022-10-16T17:47:52;11.80;99.90
18593;DHT22;9426;54.118;17.948;2022-10-16T17:53:17;11.60;99.90
18593;DHT22;9426;54.118;17.948;2022-10-16T17:58:41;11.60;99.90
18593;DHT22;9426;54.118;17.948;2022-10-16T18:04:06;11.50;99.90
18593;DHT22;9426;54.118;17.948;2022-10-16T18:09:32;11.40;99.90
18593;DHT22;9426;54.118;17.948;2022-10-16T18:14:56;11.40;99.90
18593;DHT22;9426;54.118;17.948;2022-10-16T18:20:19;11.40;99.90
18593;DHT22;9426;54.118;17.948;2022-10-16T18:25:49;11.50;99.90
18593;DHT22;9426;54.118;17.948;2022-10-16T18:31:15;11.70;99.90
18593;DHT22;9426;54.118;17.948;2022-10-16T18:36:39;11.60;99.90
18593;DHT22;9426;54.118;17.948;2022-10-16T18:42:05;11.80;99.90
18593;DHT22;9426;54.118;17.948;2022-10-16T18:47:29;12.20;99.90
18593;DHT22;9426;54.118;17.948;2022-10-16T18:52:52;12.00;99.90
18593;DHT22;9426;54.118;17.948;2022-10-16T18:58:17;12.20;99.90
18593;DHT22;9426;54.118;17.948;2022-10-16T19:03:41;12.10;99.90
18593;DHT22;9426;54.118;17.948;2022-10-16T19:09:05;11.90;99.90
18593;DHT22;9426;54.118;17.948;2022-10-16T19:14:30;11.80;99.90
18593;DHT22;9426;54.118;17.948;2022-10-16T19:19:53;11.70;99.90
18593;DHT22;9426;54.118;17.948;2022-10-16T19:25:18;11.60;99.90
18593;DHT22;9426;54.118;17.948;2022-10-16T19:30:44;11.50;99.90
18593;DHT22;9426;54.118;17.948;2022-10-16T19:36:10;11.90;99.90
18593;DHT22;9426;54.118;17.948;2022-10-16T19:41:36;12.00;99.90
18593;DHT22;9426;54.118;17.948;2022-10-16T19:47:00;12.10;99.90
18593;DHT22;9426;54.118;17.948;2022-10-16T19:52:24;12.00;99.90
18593;DHT22;9426;54.118;17.948;2022-10-16T19:57:47;11.70;99.90
18593;DHT22;9426;54.118;17.948;2022-10-16T20:03:12;11.80;99.90
18593;DHT22;9426;54.118;17.948;2022-10-16T20:08:37;11.60;99.90
18593;DHT22;9426;54.118;17.948;2022-10-16T20:14:00;11.50;99.90
18593;DHT22;9426;54.118;17.948;2022-10-16T20:19:25;11.40;99.90
18593;DHT22;9426;54.118;17.948;2022-10-16T20:24:49;11.40;99.90
18593;DHT22;9426;54.118;17.948;2022-10-16T20:30:12;11.40;99.90
18593;DHT22;9426;54.118;17.948;2022-10-16T20:35:39;11.00;99.90
18593;DHT22;9426;54.118;17.948;2022-10-16T20:41:03;11.40;99.90
18593;DHT22;9426;54.118;17.948;2022-10-16T20:46:27;10.60;99.90
18593;DHT22;9426;54.118;17.948;2022-10-16T20:51:52;10.50;99.90
18593;DHT22;9426;54.118;17.948;2022-10-16T20:57:15;10.40;99.90
18593;DHT22;9426;54.118;17.948;2022-10-16T21:02:40;10.70;99.90
18593;DHT22;9426;54.118;17.948;2022-10-16T21:08:04;10.50;99.90
18593;DHT22;9426;54.118;17.948;2022-10-16T21:13:28;10.90;99.90
18593;DHT22;9426;54.118;17.948;2022-10-16T21:18:51;11.00;99.90
18593;DHT22;9426;54.118;17.948;2022-10-16T21:24:16;10.80;99.90
18593;DHT22;9426;54.118;17.948;2022-10-16T21:29:39;10.90;99.90
18593;DHT22;9426;54.118;17.948;2022-10-16T21:35:04;10.90;99.90
18593;DHT22;9426;54.118;17.948;2022-10-16T21:40:29;10.90;99.90
18593;DHT22;9426;54.118;17.948;2022-10-16T21:45:53;11.00;99.90
18593;DHT22;9426;54.118;17.948;2022-10-16T21:51:17;11.00;99.90
18593;DHT22;9426;54.118;17.948;2022-10-16T21:56:42;11.00;99.90
18593;DHT22;9426;54.118;17.948;2022-10-16T22:02:05;11.20;99.90
18593;DHT22;9426;54.118;17.948;2022-10-16T22:07:29;11.10;99.90
18593;DHT22;9426;54.118;17.948;2022-10-16T22:12:53;11.10;99.90
18593;DHT22;9426;54.118;17.948;2022-10-16T22:18:17;11.20;99.90
18593;DHT22;9426;54.118;17.948;2022-10-16T22:23:40;11.00;99.90
18593;DHT22;9426;54.118;17.948;2022-10-16T22:29:05;10.90;99.90
18593;DHT22;9426;54.118;17.948;2022-10-16T22:34:29;11.00;99.90
18593;DHT22;9426;54.118;17.948;2022-10-16T22:39:52;10.90;99.90
18593;DHT22;9426;54.118;17.948;2022-10-16T22:45:17;10.80;99.90
18593;DHT22;9426;54.118;17.948;2022-10-16T22:50:41;10.70;99.90
18593;DHT22;9426;54.118;17.948;2022-10-16T22:56:04;10.70;99.90
18593;DHT22;9426;54.118;17.948;2022-10-16T23:01:31;10.70;99.90
18593;DHT22;9426;54.118;17.948;2022-10-16T23:06:55;10.70;99.90
18593;DHT22;9426;54.118;17.948;2022-10-16T23:12:19;10.80;99.90
18593;DHT22;9426;54.118;17.948;2022-10-16T23:17:48;10.80;99.90
18593;DHT22;9426;54.118;17.948;2022-10-16T23:23:11;10.60;99.90
18593;DHT22;9426;54.118;17.948;2022-10-16T23:28:34;10.50;99.90
18593;DHT22;9426;54.118;17.948;2022-10-16T23:33:59;10.30;99.90
18593;DHT22;9426;54.118;17.948;2022-10-16T23:39:23;10.00;99.90
18593;DHT22;9426;54.118;17.948;2022-10-16T23:44:46;9.60;99.90
18593;DHT22;9426;54.118;17.948;2022-10-16T23:50:11;9.40;99.90
18593;DHT22;9426;54.118;17.948;2022-10-16T23:55:34;9.20;99.90
